Time;durP1;ratioP1;P1;durP2;ratioP2;P2;SDS_P1;SDS_P2;PMS_P1;PMS_P2;Temp;Humidity;BMP_temperature;BMP_pressure;BME280_temperature;BME280_humidity;BME280_pressure;Samples;Min_cycle;Max_cycle;Signal;HPM_P1;HPM_P2
2023/01/14 00:01:09;;;;;;;7.65;1.38;;;8.90;87.10;;;;;;5132560;28;20024;-74
2023/01/14 00:03:35;;;;;;;13.18;2.60;;;8.80;87.00;;;;;;5133481;28;20030;-74
2023/01/14 00:06:01;;;;;;;12.52;2.13;;;8.70;87.30;;;;;;5115428;28;20024;-75
2023/01/14 00:08:28;;;;;;;10.32;2.15;;;8.60;87.70;;;;;;5132324;28;20043;-74
2023/01/14 00:10:54;;;;;;;9.45;2.10;;;8.60;87.80;;;;;;5133357;28;20031;-74
2023/01/14 00:13:19;;;;;;;8.85;2.10;;;8.60;87.90;;;;;;5132402;28;20024;-74
2023/01/14 00:15:58;;;;;;;9.40;2.05;;;8.60;88.00;;;;;;5134185;28;20027;-74
2023/01/14 00:18:24;;;;;;;6.30;1.73;;;8.60;88.10;;;;;;5136101;28;20031;-74
2023/01/14 00:21:05;;;;;;;9.23;1.83;;;8.70;87.90;;;;;;5118888;28;20027;-75
2023/01/14 00:23:33;;;;;;;5.38;1.77;;;8.60;88.00;;;;;;5136888;28;20035;-75
2023/01/14 00:26:04;;;;;;;6.82;1.50;;;8.70;88.00;;;;;;5135913;28;20047;-75
2023/01/14 00:28:31;;;;;;;9.52;2.05;;;8.70;87.90;;;;;;5136714;28;20027;-74
2023/01/14 00:31:08;;;;;;;9.30;1.63;;;8.70;87.90;;;;;;5136754;28;20095;-74
2023/01/14 00:33:35;;;;;;;12.23;2.15;;;8.70;87.80;;;;;;5135971;28;20035;-74
2023/01/14 00:36:02;;;;;;;9.80;1.98;;;8.70;87.70;;;;;;5136666;28;20043;-75
2023/01/14 00:38:28;;;;;;;9.68;1.48;;;8.70;87.60;;;;;;5135600;28;20028;-75
2023/01/14 00:41:08;;;;;;;10.00;2.33;;;8.70;87.70;;;;;;5136575;28;20608;-74
2023/01/14 00:43:36;;;;;;;7.50;2.00;;;8.60;87.70;;;;;;5136539;28;20043;-75
2023/01/14 00:46:02;;;;;;;7.32;1.38;;;8.60;87.90;;;;;;5135506;28;20020;-75
2023/01/14 00:48:27;;;;;;;10.15;2.08;;;8.50;87.90;;;;;;5118377;28;20052;-74
2023/01/14 00:50:53;;;;;;;11.02;1.63;;;8.60;87.90;;;;;;5135322;28;20116;-75
2023/01/14 00:53:19;;;;;;;12.80;2.63;;;8.60;87.80;;;;;;5135249;28;20031;-74
2023/01/14 00:55:44;;;;;;;9.88;2.47;;;8.50;87.90;;;;;;5135289;28;20087;-74
2023/01/14 00:58:10;;;;;;;7.40;2.53;;;8.50;87.70;;;;;;5118169;28;20031;-74
2023/01/14 01:00:36;;;;;;;6.50;1.77;;;8.50;88.20;;;;;;5135234;28;20032;-74
2023/01/14 01:03:01;;;;;;;10.40;1.98;;;8.40;87.70;;;;;;5118279;28;20027;-75
2023/01/14 01:05:27;;;;;;;8.88;2.40;;;8.40;87.90;;;;;;5136033;28;20388;-74
2023/01/14 01:07:52;;;;;;;12.40;2.42;;;8.40;88.20;;;;;;5117879;28;20031;-75
2023/01/14 01:10:18;;;;;;;9.45;2.13;;;8.40;88.30;;;;;;5135978;28;20027;-74
2023/01/14 01:12:44;;;;;;;8.57;2.70;;;8.40;88.40;;;;;;5135083;28;20037;-74
2023/01/14 01:15:09;;;;;;;10.10;2.13;;;8.40;88.20;;;;;;5135865;28;20127;-74
2023/01/14 01:17:35;;;;;;;8.05;2.08;;;8.30;88.10;;;;;;5134991;28;20091;-75
2023/01/14 01:20:01;;;;;;;8.32;2.38;;;8.30;88.10;;;;;;5117886;28;20031;-75
2023/01/14 01:22:28;;;;;;;8.73;2.08;;;8.30;88.20;;;;;;5117790;28;20024;-74
2023/01/14 01:24:54;;;;;;;11.38;2.30;;;8.40;88.20;;;;;;5134724;28;20028;-74
2023/01/14 01:27:19;;;;;;;15.13;2.35;;;8.30;88.20;;;;;;5116310;28;20035;-74
2023/01/14 01:29:45;;;;;;;7.22;1.83;;;8.30;87.90;;;;;;5134620;28;20035;-75
2023/01/14 01:32:10;;;;;;;17.77;2.83;;;8.30;88.10;;;;;;5117551;28;20034;-74
2023/01/14 01:34:36;;;;;;;12.55;2.15;;;8.20;88.30;;;;;;5135464;28;20027;-74
2023/01/14 01:37:02;;;;;;;7.28;2.80;;;8.20;88.70;;;;;;5134433;28;20024;-75
2023/01/14 01:39:27;;;;;;;10.45;2.13;;;8.20;88.80;;;;;;5117385;28;20043;-75
2023/01/14 01:41:53;;;;;;;7.93;1.58;;;8.10;88.90;;;;;;5117140;28;20469;-75
2023/01/14 01:44:19;;;;;;;6.47;1.80;;;8.10;89.30;;;;;;5117293;28;20030;-74
2023/01/14 01:46:44;;;;;;;10.98;2.13;;;8.10;89.50;;;;;;5135139;28;20024;-74
2023/01/14 01:49:12;;;;;;;13.02;2.67;;;8.00;89.80;;;;;;5117168;28;20091;-74
2023/01/14 01:51:52;;;;;;;11.27;2.15;;;8.00;90.00;;;;;;5135121;28;20024;-75
2023/01/14 01:54:23;;;;;;;14.27;2.45;;;8.00;90.10;;;;;;5134138;28;20015;-74
2023/01/14 01:56:49;;;;;;;8.40;2.15;;;8.00;90.20;;;;;;5135224;28;20023;-74
2023/01/14 01:59:21;;;;;;;11.80;2.10;;;7.90;90.20;;;;;;5117006;28;20053;-75
2023/01/14 02:01:48;;;;;;;10.95;2.38;;;7.90;90.20;;;;;;5134035;28;20024;-75
2023/01/14 02:04:14;;;;;;;17.42;2.22;;;7.90;90.20;;;;;;5133861;28;20026;-74
2023/01/14 02:06:40;;;;;;;13.18;2.25;;;7.90;90.30;;;;;;5134905;28;20024;-75
2023/01/14 02:09:06;;;;;;;11.32;2.28;;;7.90;90.30;;;;;;5133831;28;20398;-74
2023/01/14 02:11:38;;;;;;;7.47;2.38;;;7.90;90.40;;;;;;5133842;28;20023;-75
2023/01/14 02:14:35;;;;;;;13.05;3.00;;;7.80;90.50;;;;;;5134911;28;20031;-74
2023/01/14 02:17:01;;;;;;;13.65;2.78;;;7.80;90.40;;;;;;5133703;28;20024;-74
2023/01/14 02:19:48;;;;;;;15.88;3.15;;;7.90;90.50;;;;;;5134675;28;20067;-74
2023/01/14 02:22:35;;;;;;;13.82;2.22;;;7.80;90.50;;;;;;5133571;28;20050;-74
2023/01/14 02:25:39;;;;;;;14.05;2.10;;;7.80;90.50;;;;;;5133506;28;20083;-74
2023/01/14 02:28:23;;;;;;;11.02;1.95;;;7.80;90.60;;;;;;5089212;28;20064;-75
2023/01/14 02:31:15;;;;;;;13.93;2.35;;;7.80;90.70;;;;;;5133460;28;20049;-75
2023/01/14 02:33:44;;;;;;;9.68;1.90;;;7.70;90.80;;;;;;5133467;28;20070;-75
2023/01/14 02:36:31;;;;;;;7.50;1.58;;;7.70;90.80;;;;;;5134472;28;20073;-74
2023/01/14 02:39:03;;;;;;;6.28;1.55;;;7.80;90.80;;;;;;5132979;28;20091;-75
2023/01/14 02:45:23;;;;;;;9.40;1.58;;;7.70;90.80;;;;;;5099558;28;20030;-74
2023/01/14 02:47:50;;;;;;;14.38;2.60;;;7.70;91.40;;;;;;5132489;28;20047;-75
2023/01/14 02:50:17;;;;;;;16.08;2.83;;;7.60;91.20;;;;;;5134162;28;20493;-74
2023/01/14 02:52:42;;;;;;;17.02;1.90;;;7.60;91.20;;;;;;5116152;28;20024;-75
2023/01/14 02:55:31;;;;;;;8.50;2.70;;;7.60;91.30;;;;;;5133199;28;20024;-74
2023/01/14 02:58:42;;;;;;;6.50;1.60;;;7.50;91.40;;;;;;5134117;28;20024;-74
2023/01/14 03:01:19;;;;;;;10.50;1.80;;;7.50;91.40;;;;;;5133026;28;20019;-74
2023/01/14 03:04:03;;;;;;;8.38;1.52;;;7.50;91.40;;;;;;5132913;28;20030;-74
2023/01/14 03:06:41;;;;;;;6.15;2.05;;;7.50;91.60;;;;;;5133086;28;20032;-74
2023/01/14 03:09:34;;;;;;;9.38;1.88;;;7.40;91.70;;;;;;5133794;28;20028;-75
2023/01/14 03:12:29;;;;;;;10.07;1.85;;;7.30;91.80;;;;;;5133008;28;20024;-75
2023/01/14 03:15:21;;;;;;;16.30;2.45;;;7.30;91.80;;;;;;5132940;28;20043;-74
2023/01/14 03:18:17;;;;;;;9.15;1.67;;;7.30;91.80;;;;;;5132920;28;20024;-74
2023/01/14 03:20:51;;;;;;;11.15;1.77;;;7.20;92.00;;;;;;5127742;28;20031;-74
2023/01/14 03:23:20;;;;;;;6.88;1.88;;;7.30;92.10;;;;;;5133874;28;20035;-74
2023/01/14 03:25:48;;;;;;;12.00;1.95;;;7.30;92.10;;;;;;5133720;28;20034;-74
2023/01/14 03:28:19;;;;;;;10.35;2.17;;;7.20;92.20;;;;;;5132650;28;20028;-74
2023/01/14 03:30:50;;;;;;;13.27;2.10;;;7.20;92.30;;;;;;5133792;28;20019;-74
2023/01/14 03:33:33;;;;;;;12.82;2.42;;;7.20;92.20;;;;;;5132765;28;20023;-74
2023/01/14 03:35:59;;;;;;;;;;;7.20;92.20;;;;;;5134150;28;20016;-74
2023/01/14 03:38:42;;;;;;;14.90;2.13;;;7.20;92.40;;;;;;5133688;28;19915;-75
2023/01/14 03:42:17;;;;;;;14.77;2.30;;;7.10;92.50;;;;;;5132456;28;20028;-75
2023/01/14 03:44:01;;;;;;;9.27;1.90;;;7.10;92.60;;;;;;5133532;28;20028;-74
2023/01/14 03:46:27;;;;;;;10.50;1.80;;;7.10;92.80;;;;;;5132606;28;20023;-75
2023/01/14 03:48:53;;;;;;;8.60;1.50;;;7.10;92.90;;;;;;5132708;28;20514;-75
2023/01/14 03:51:32;;;;;;;14.20;2.25;;;7.10;93.00;;;;;;5134544;28;20079;-75
2023/01/14 03:54:10;;;;;;;13.23;2.90;;;7.10;93.00;;;;;;5136511;28;20039;-75
2023/01/14 03:56:59;;;;;;;15.50;2.00;;;7.20;93.10;;;;;;5136415;28;20030;-75
2023/01/14 03:59:41;;;;;;;9.05;1.08;;;7.20;93.10;;;;;;5137409;28;20023;-75
2023/01/14 04:02:09;;;;;;;12.27;2.17;;;7.20;93.10;;;;;;5136414;28;20087;-75
2023/01/14 04:04:35;;;;;;;7.60;2.20;;;7.10;93.30;;;;;;5119536;28;20027;-74
2023/01/14 04:07:00;;;;;;;11.95;3.40;;;7.10;93.40;;;;;;5137185;27;20028;-74
2023/01/14 04:09:26;;;;;;;10.90;2.65;;;7.10;93.50;;;;;;5136251;28;20034;-74
2023/01/14 04:11:52;;;;;;;14.07;1.55;;;7.10;93.50;;;;;;5102304;28;20095;-74
2023/01/14 04:17:01;;;;;;;9.70;1.55;;;7.10;93.70;;;;;;5137197;28;20046;-74
2023/01/14 04:19:27;;;;;;;10.38;1.63;;;7.10;93.70;;;;;;5119027;28;20463;-75
2023/01/14 04:21:52;;;;;;;5.03;1.38;;;7.10;93.70;;;;;;5136031;28;20032;-75
2023/01/14 04:24:18;;;;;;;9.23;1.15;;;7.20;93.80;;;;;;5135968;28;20024;-74
2023/01/14 04:26:44;;;;;;;12.85;1.88;;;7.20;93.80;;;;;;5135977;28;20024;-75
2023/01/14 04:29:09;;;;;;;10.68;2.60;;;7.20;93.80;;;;;;5135828;28;20031;-74
2023/01/14 04:31:35;;;;;;;7.57;1.42;;;7.30;93.70;;;;;;5136763;28;20073;-74
2023/01/14 04:34:00;;;;;;;9.38;1.55;;;7.20;93.80;;;;;;5135766;28;20024;-75
2023/01/14 04:36:26;;;;;;;6.38;1.67;;;7.20;93.80;;;;;;5136648;28;20028;-74
2023/01/14 04:38:52;;;;;;;8.85;1.70;;;7.20;93.80;;;;;;5118730;28;20039;-74
2023/01/14 04:44:02;;;;;;;9.30;1.92;;;7.30;93.80;;;;;;5136652;28;20039;-75
2023/01/14 04:46:28;;;;;;;14.93;1.98;;;7.20;93.80;;;;;;5118458;28;20032;-75
2023/01/14 04:48:53;;;;;;;11.70;2.03;;;7.30;93.80;;;;;;5118352;28;20043;-75
2023/01/14 04:51:19;;;;;;;5.80;1.65;;;7.20;93.80;;;;;;5135389;28;20045;-75
2023/01/14 04:53:44;;;;;;;4.63;1.17;;;7.20;93.80;;;;;;5118267;28;20030;-74
2023/01/14 04:56:10;;;;;;;10.20;1.67;;;7.20;93.80;;;;;;5118238;28;20026;-75
2023/01/14 04:58:36;;;;;;;11.45;1.63;;;7.20;93.90;;;;;;5136242;28;20081;-75
2023/01/14 05:01:01;;;;;;;6.15;1.23;;;7.30;93.80;;;;;;5135237;28;20034;-75
2023/01/14 05:03:27;;;;;;;11.65;1.50;;;7.30;93.80;;;;;;5117855;28;20036;-74
2023/01/14 05:05:52;;;;;;;4.32;1.02;;;7.20;93.80;;;;;;5135192;28;20036;-75
2023/01/14 05:08:20;;;;;;;9.65;1.73;;;7.20;93.80;;;;;;5136042;28;20050;-74
2023/01/14 05:10:50;;;;;;;10.95;2.00;;;7.20;93.90;;;;;;5118240;28;20015;-75
2023/01/14 05:13:16;;;;;;;4.80;1.15;;;7.20;93.90;;;;;;5134936;28;20056;-74
2023/01/14 05:15:44;;;;;;;4.93;1.50;;;7.20;93.90;;;;;;5117967;28;20028;-75
2023/01/14 05:18:12;;;;;;;4.30;1.33;;;7.20;93.80;;;;;;5134936;28;20047;-74
2023/01/14 05:20:38;;;;;;;7.82;1.55;;;7.20;93.80;;;;;;5134806;28;20024;-74
2023/01/14 05:23:08;;;;;;;12.13;1.80;;;7.20;93.80;;;;;;5134831;28;20028;-74
2023/01/14 05:25:34;;;;;;;7.65;1.88;;;7.20;93.80;;;;;;5135741;28;20020;-75
2023/01/14 05:28:06;;;;;;;7.65;1.85;;;7.30;93.80;;;;;;5117616;28;20019;-74
2023/01/14 05:30:32;;;;;;;7.43;1.63;;;7.30;93.80;;;;;;5135647;28;20023;-74
2023/01/14 05:32:58;;;;;;;10.48;1.38;;;7.30;93.80;;;;;;5134540;28;20030;-74
2023/01/14 05:35:24;;;;;;;6.50;1.30;;;7.30;93.70;;;;;;5117495;28;20030;-75
2023/01/14 05:37:50;;;;;;;10.02;1.52;;;7.30;93.70;;;;;;5134425;28;20027;-75
2023/01/14 05:40:16;;;;;;;8.85;1.75;;;7.30;93.60;;;;;;5135464;28;20023;-74
2023/01/14 05:45:40;;;;;;;5.07;1.08;;;7.40;93.50;;;;;;5134752;28;20065;-74
2023/01/14 05:48:10;;;;;;;10.55;1.50;;;7.30;93.50;;;;;;5134198;28;20049;-74
2023/01/14 05:50:36;;;;;;;3.95;1.02;;;7.40;93.50;;;;;;5134187;28;20012;-75
2023/01/14 05:53:02;;;;;;;14.20;1.30;;;7.40;93.50;;;;;;5117254;28;20027;-74
2023/01/14 05:55:28;;;;;;;12.82;2.40;;;7.40;93.30;;;;;;5134188;28;20039;-74
2023/01/14 05:57:59;;;;;;;8.68;1.42;;;7.40;93.30;;;;;;5135052;28;20032;-74
2023/01/14 06:08:27;;;;;;;10.30;1.90;;;7.40;93.20;;;;;;5133892;28;20375;-75
2023/01/14 06:10:53;;;;;;;10.15;1.63;;;7.40;93.20;;;;;;5134850;28;20076;-74
2023/01/14 06:13:22;;;;;;;7.13;1.80;;;7.40;93.10;;;;;;5133194;28;20521;-75
2023/01/14 06:15:51;;;;;;;5.97;1.35;;;7.40;93.10;;;;;;5134764;28;20015;-74
2023/01/14 06:18:21;;;;;;;4.30;1.05;;;7.40;92.90;;;;;;5133724;28;20023;-75
2023/01/14 06:20:49;;;;;;;3.58;1.17;;;7.50;92.90;;;;;;5133810;28;20028;-74
2023/01/14 06:23:14;;;;;;;9.70;1.98;;;7.50;92.80;;;;;;5133547;28;20054;-74
2023/01/14 06:25:42;;;;;;;8.65;1.60;;;7.50;92.70;;;;;;5133530;28;20032;-75
2023/01/14 06:28:08;;;;;;;7.70;1.25;;;7.50;92.90;;;;;;5134248;28;20082;-74
2023/01/14 06:30:34;;;;;;;13.57;2.70;;;7.50;92.70;;;;;;5116524;28;20050;-74
2023/01/14 06:32:59;;;;;;;5.30;1.52;;;7.60;92.60;;;;;;5133476;28;20034;-74
2023/01/14 06:35:25;;;;;;;9.77;1.90;;;7.60;92.30;;;;;;5133464;28;20020;-74
2023/01/14 06:37:51;;;;;;;7.70;1.35;;;7.70;92.40;;;;;;5116311;28;20032;-74
2023/01/14 06:40:19;;;;;;;8.57;2.75;;;7.70;92.20;;;;;;5115908;28;20111;-74
2023/01/14 06:42:45;;;;;;;8.60;1.80;;;7.60;92.30;;;;;;5133109;28;20032;-74
2023/01/14 06:45:11;;;;;;;11.40;2.10;;;7.70;92.30;;;;;;5134235;28;20038;-74
2023/01/14 06:47:37;;;;;;;14.80;2.28;;;7.60;92.50;;;;;;5133206;28;20039;-74
2023/01/14 06:50:05;;;;;;;12.43;1.30;;;7.70;92.80;;;;;;5133223;28;20023;-74
2023/01/14 06:52:31;;;;;;;3.60;1.23;;;7.60;92.90;;;;;;5133142;28;20035;-74
2023/01/14 06:54:58;;;;;;;11.70;1.65;;;7.60;93.10;;;;;;5116329;28;20031;-74
2023/01/14 06:57:25;;;;;;;14.18;2.15;;;7.60;93.40;;;;;;5134219;28;20024;-74
2023/01/14 06:59:51;;;;;;;6.72;1.70;;;7.60;93.40;;;;;;5133057;28;20020;-74
2023/01/14 07:02:17;;;;;;;16.73;2.42;;;7.60;93.50;;;;;;5134055;28;20028;-74
2023/01/14 07:04:43;;;;;;;9.65;1.77;;;7.60;93.70;;;;;;5133982;28;20038;-74
2023/01/14 07:07:10;;;;;;;8.25;1.85;;;7.70;93.70;;;;;;5116252;28;20037;-74
2023/01/14 07:09:35;;;;;;;13.00;2.10;;;7.60;93.90;;;;;;5132975;28;20024;-74
2023/01/14 07:12:01;;;;;;;6.03;1.02;;;7.60;94.20;;;;;;5133048;28;20453;-74
2023/01/14 07:14:27;;;;;;;10.95;1.40;;;7.60;94.30;;;;;;5133102;28;20031;-74
2023/01/14 07:16:52;;;;;;;12.57;2.30;;;7.60;94.40;;;;;;5115884;28;20077;-74
2023/01/14 07:19:18;;;;;;;6.25;1.38;;;7.60;94.60;;;;;;5132996;28;20065;-74
2023/01/14 07:21:43;;;;;;;5.32;1.38;;;7.60;94.60;;;;;;5133833;28;20036;-74
2023/01/14 07:24:10;;;;;;;9.40;1.90;;;7.60;94.80;;;;;;5133831;28;20032;-74
2023/01/14 07:26:36;;;;;;;3.85;1.60;;;7.60;94.90;;;;;;5136992;28;20043;-74
2023/01/14 07:29:01;;;;;;;8.05;1.95;;;7.50;95.10;;;;;;5119826;28;20036;-74
2023/01/14 07:31:27;;;;;;;3.47;1.00;;;7.60;95.20;;;;;;5137950;28;20023;-74
2023/01/14 07:33:53;;;;;;;8.93;1.52;;;7.50;95.30;;;;;;5136980;28;20071;-74
2023/01/14 07:36:19;;;;;;;9.35;2.22;;;7.50;95.50;;;;;;5136907;28;20024;-74
2023/01/14 07:38:44;;;;;;;8.10;0.77;;;7.50;95.70;;;;;;5136931;28;20042;-74
2023/01/14 07:41:11;;;;;;;11.82;2.13;;;7.50;95.90;;;;;;5119712;28;20031;-73
2023/01/14 07:43:36;;;;;;;11.35;2.00;;;7.50;96.00;;;;;;5136677;28;20054;-74
2023/01/14 07:46:02;;;;;;;4.00;1.00;;;7.50;95.90;;;;;;5136930;28;20036;-74
2023/01/14 07:48:31;;;;;;;10.43;1.33;;;7.60;96.00;;;;;;5136597;28;20032;-74
2023/01/14 07:50:57;;;;;;;9.32;1.90;;;7.50;96.10;;;;;;5136563;28;20083;-74
2023/01/14 07:53:22;;;;;;;7.28;1.30;;;7.60;96.10;;;;;;5136519;28;20016;-74
2023/01/14 07:55:48;;;;;;;7.07;1.92;;;7.60;96.20;;;;;;5137495;28;20027;-74
2023/01/14 07:58:14;;;;;;;6.97;1.33;;;7.60;96.50;;;;;;5136589;28;20131;-74
2023/01/14 08:00:41;;;;;;;8.57;1.80;;;7.50;96.70;;;;;;5136482;28;20192;-74
2023/01/14 08:03:06;;;;;;;6.22;1.45;;;7.60;96.80;;;;;;5136346;28;20024;-74
2023/01/14 08:05:35;;;;;;;5.80;1.58;;;7.50;97.00;;;;;;5136339;28;20027;-74
2023/01/14 08:08:01;;;;;;;6.20;1.85;;;7.50;97.10;;;;;;5119087;28;20035;-74
2023/01/14 08:10:26;;;;;;;3.55;1.20;;;7.60;97.20;;;;;;5137159;28;20100;-74
2023/01/14 08:12:52;;;;;;;4.32;1.15;;;7.60;97.20;;;;;;5136143;28;20095;-74
2023/01/14 08:15:18;;;;;;;9.60;1.90;;;7.60;97.40;;;;;;5136152;28;20024;-74
2023/01/14 08:17:44;;;;;;;3.92;1.70;;;7.60;97.40;;;;;;5119071;28;20526;-74
2023/01/14 08:20:10;;;;;;;8.48;1.60;;;7.70;97.30;;;;;;5137008;28;20032;-74
2023/01/14 08:22:36;;;;;;;6.57;1.55;;;7.70;97.30;;;;;;5135967;28;20031;-74
2023/01/14 08:25:03;;;;;;;5.57;1.75;;;7.70;97.50;;;;;;5135869;28;20035;-74
2023/01/14 08:27:29;;;;;;;4.28;1.40;;;7.70;97.70;;;;;;5136855;28;20046;-74
2023/01/14 08:29:55;;;;;;;3.85;1.20;;;7.70;97.80;;;;;;5135796;28;20028;-74
2023/01/14 08:32:22;;;;;;;3.35;0.98;;;7.80;97.80;;;;;;5135898;28;20085;-74
2023/01/14 08:34:47;;;;;;;8.68;0.95;;;7.80;97.70;;;;;;5135845;28;20034;-73
2023/01/14 08:37:13;;;;;;;2.88;0.77;;;7.80;97.90;;;;;;5134937;28;20032;-74
2023/01/14 08:39:38;;;;;;;7.97;1.55;;;7.70;98.00;;;;;;5135678;28;20023;-73
2023/01/14 08:42:04;;;;;;;4.45;1.55;;;7.80;98.20;;;;;;5135286;28;20051;-74
2023/01/14 08:44:30;;;;;;;3.95;1.27;;;7.80;98.20;;;;;;5135638;28;20058;-74
2023/01/14 08:46:56;;;;;;;3.90;1.05;;;7.80;98.30;;;;;;5136479;28;20019;-74
2023/01/14 08:49:21;;;;;;;2.75;0.98;;;7.80;98.20;;;;;;5118550;28;20039;-74
2023/01/14 08:51:47;;;;;;;8.60;1.33;;;7.90;98.30;;;;;;5118608;28;20081;-74
2023/01/14 08:54:12;;;;;;;3.13;0.98;;;7.90;98.20;;;;;;5136356;28;20096;-74
2023/01/14 08:56:38;;;;;;;2.05;0.90;;;7.90;98.00;;;;;;5135419;28;20024;-74
2023/01/14 08:59:04;;;;;;;2.88;0.70;;;7.90;98.20;;;;;;5135341;28;20035;-74
2023/01/14 09:01:29;;;;;;;5.18;1.40;;;8.00;98.10;;;;;;5136255;28;20023;-74
2023/01/14 09:04:00;;;;;;;6.30;1.15;;;8.00;98.20;;;;;;5135198;28;20035;-74
2023/01/14 09:06:26;;;;;;;2.88;1.50;;;8.00;98.20;;;;;;5135155;28;20039;-74
2023/01/14 09:17:14;;;;;;;2.08;1.42;;;8.20;97.90;;;;;;5136190;28;20034;-74
2023/01/14 09:19:45;;;;;;;1.30;0.90;;;8.20;97.90;;;;;;5136071;28;20045;-74
2023/01/14 09:22:13;;;;;;;1.20;0.65;;;8.20;97.90;;;;;;5135859;28;20023;-74
2023/01/14 09:24:39;;;;;;;6.80;1.20;;;8.20;98.00;;;;;;5134739;28;20020;-74
2023/01/14 09:27:05;;;;;;;4.70;1.45;;;8.30;97.90;;;;;;5134813;28;20465;-74
2023/01/14 09:29:31;;;;;;;2.85;0.70;;;8.30;97.80;;;;;;5134709;28;20024;-74
2023/01/14 09:31:56;;;;;;;3.75;0.90;;;8.30;97.90;;;;;;5134605;28;20016;-74
2023/01/14 09:34:22;;;;;;;1.45;0.80;;;8.40;98.00;;;;;;5134601;28;20044;-74
2023/01/14 09:36:49;;;;;;;2.95;0.75;;;8.40;98.00;;;;;;5134512;28;20032;-74
2023/01/14 09:39:15;;;;;;;4.00;0.95;;;8.40;98.10;;;;;;5135491;28;20083;-74
2023/01/14 09:41:54;;;;;;;0.90;0.40;;;8.40;98.20;;;;;;5135282;28;20039;-75
2023/01/14 09:44:20;;;;;;;3.30;0.45;;;8.40;98.20;;;;;;5134483;28;20023;-74
2023/01/14 09:46:46;;;;;;;2.47;0.95;;;8.40;98.10;;;;;;5135367;28;20031;-74
2023/01/14 09:49:16;;;;;;;4.43;1.00;;;8.40;98.00;;;;;;5133353;28;20028;-74
2023/01/14 09:52:11;;;;;;;2.92;1.23;;;8.50;98.10;;;;;;5135239;28;20027;-74
2023/01/14 09:54:45;;;;;;;4.85;0.65;;;8.50;98.20;;;;;;5135209;28;20027;-74
2023/01/14 09:57:35;;;;;;;3.25;0.82;;;8.50;98.00;;;;;;5135148;28;20079;-74
2023/01/14 10:00:06;;;;;;;1.63;0.80;;;8.50;98.10;;;;;;5135156;28;20028;-74
2023/01/14 10:02:53;;;;;;;2.25;0.80;;;8.50;98.20;;;;;;5135234;28;20046;-74
2023/01/14 10:05:28;;;;;;;4.07;0.80;;;8.50;98.10;;;;;;5134996;28;20019;-74
2023/01/14 10:07:59;;;;;;;3.75;0.93;;;8.60;98.20;;;;;;5133858;28;20024;-74
2023/01/14 10:21:03;;;;;;;5.40;0.65;;;8.60;98.30;;;;;;5109399;27;1296913;-73
2023/01/14 10:23:40;;;;;;;1.95;0.57;;;8.50;99.00;;;;;;5131228;28;20039;-75
2023/01/14 10:26:17;;;;;;;6.85;1.30;;;8.50;99.00;;;;;;5131186;28;20098;-75
2023/01/14 10:28:46;;;;;;;2.13;0.77;;;8.60;99.10;;;;;;5131003;28;20046;-73
2023/01/14 10:31:29;;;;;;;3.33;1.02;;;8.60;99.00;;;;;;5131031;28;20043;-73
2023/01/14 10:33:54;;;;;;;;;;;8.70;99.10;;;;;;5131442;28;20027;-75
2023/01/14 10:36:23;;;;;;;4.20;0.85;;;8.70;98.90;;;;;;5130950;28;19908;-75
2023/01/14 10:38:50;;;;;;;2.55;1.08;;;8.70;99.00;;;;;;5112997;28;20028;-75
2023/01/14 10:41:48;;;;;;;1.55;0.52;;;8.70;99.10;;;;;;5113071;28;20177;-75
2023/01/14 10:44:04;;;;;;;3.67;0.98;;;8.70;99.10;;;;;;5130580;28;20516;-75
2023/01/14 10:46:30;;;;;;;2.55;0.90;;;8.70;99.20;;;;;;5112952;28;20028;-75
2023/01/14 10:49:21;;;;;;;2.90;0.70;;;8.80;99.10;;;;;;5130752;28;20050;-75
2023/01/14 10:51:49;;;;;;;2.42;0.93;;;8.80;99.10;;;;;;5130689;28;20050;-75
2023/01/14 10:54:27;;;;;;;4.15;0.98;;;8.80;99.10;;;;;;5130592;28;20042;-75
2023/01/14 10:57:12;;;;;;;1.17;0.60;;;8.90;99.10;;;;;;5112526;28;20024;-75
2023/01/14 10:59:50;;;;;;;3.88;0.82;;;8.90;99.00;;;;;;5112571;28;20020;-75
2023/01/14 11:02:36;;;;;;;0.85;0.50;;;8.90;99.00;;;;;;5112492;28;20081;-75
2023/01/14 11:05:21;;;;;;;2.75;0.60;;;9.00;99.10;;;;;;5130552;28;20024;-75
2023/01/14 11:07:52;;;;;;;1.30;0.57;;;9.00;99.20;;;;;;5128673;28;20024;-75
2023/01/14 11:10:22;;;;;;;2.42;0.80;;;9.00;99.20;;;;;;5109807;28;20073;-75
2023/01/14 11:12:51;;;;;;;2.97;0.93;;;9.10;99.40;;;;;;5091767;28;20024;-75
2023/01/14 11:15:39;;;;;;;0.73;0.47;;;9.10;99.40;;;;;;5091768;28;20080;-75
2023/01/14 11:18:22;;;;;;;5.45;0.70;;;9.10;99.50;;;;;;5091793;28;20027;-74
2023/01/14 11:21:02;;;;;;;;;;;9.20;99.40;;;;;;5102585;28;20045;-74
2023/01/14 11:23:31;;;;;;;0.93;0.30;;;9.20;99.20;;;;;;5078272;28;19904;-75
2023/01/14 11:26:01;;;;;;;2.00;0.52;;;9.30;99.10;;;;;;5096020;28;20028;-74
2023/01/14 11:28:27;;;;;;;3.50;1.13;;;9.30;99.20;;;;;;5095898;28;20029;-74
2023/01/14 11:30:54;;;;;;;2.50;0.65;;;9.30;99.00;;;;;;5095938;28;20151;-74
2023/01/14 11:33:23;;;;;;;2.22;0.75;;;9.40;99.10;;;;;;5078067;28;20530;-75
2023/01/14 11:35:57;;;;;;;2.60;0.47;;;9.40;99.10;;;;;;5095850;28;20012;-74
2023/01/14 11:38:23;;;;;;;1.45;0.45;;;9.40;99.00;;;;;;5078116;28;20025;-75
2023/01/14 11:44:01;;;;;;;0.80;0.40;;;9.50;99.00;;;;;;5095921;28;20028;-75
2023/01/14 11:46:27;;;;;;;1.30;0.80;;;9.50;99.00;;;;;;5095688;28;20028;-74
2023/01/14 11:49:02;;;;;;;0.17;0.10;;;9.50;98.80;;;;;;5095532;28;20112;-75
2023/01/14 11:51:29;;;;;;;2.60;0.30;;;9.60;98.60;;;;;;5095563;28;20025;-74
2023/01/14 11:53:56;;;;;;;0.28;0.22;;;9.60;98.40;;;;;;5077732;28;20082;-75
2023/01/14 11:56:28;;;;;;;0.35;0.25;;;9.70;98.50;;;;;;5077756;28;20032;-75
2023/01/14 11:58:54;;;;;;;0.60;0.10;;;9.70;98.10;;;;;;5095402;28;20024;-74
2023/01/14 12:01:37;;;;;;;3.30;0.50;;;9.70;98.20;;;;;;5077831;28;20024;-75
2023/01/14 12:04:16;;;;;;;0.20;0.20;;;9.70;98.20;;;;;;5077582;28;20044;-75
2023/01/14 12:06:45;;;;;;;0.10;0.10;;;9.70;98.20;;;;;;5077671;28;20028;-75
2023/01/14 12:09:19;;;;;;;1.23;0.32;;;9.70;98.30;;;;;;5077374;28;20126;-75
2023/01/14 12:12:15;;;;;;;0.50;0.40;;;9.70;98.20;;;;;;5077522;28;20047;-75
2023/01/14 12:17:49;;;;;;;0.70;0.35;;;9.70;98.20;;;;;;5080331;28;20083;-75
2023/01/14 12:20:18;;;;;;;0.28;0.28;;;9.70;98.40;;;;;;5094872;28;20044;-75
2023/01/14 12:22:52;;;;;;;1.60;0.10;;;9.70;98.30;;;;;;5094942;28;20027;-75
2023/01/14 12:25:36;;;;;;;0.73;0.15;;;9.70;98.50;;;;;;5094895;28;20028;-75
2023/01/14 12:28:04;;;;;;;1.90;0.35;;;9.70;98.60;;;;;;5077110;28;20016;-75
2023/01/14 12:30:39;;;;;;;1.08;0.32;;;9.70;98.50;;;;;;5094692;28;20465;-75
2023/01/14 12:33:08;;;;;;;1.20;0.30;;;9.80;98.50;;;;;;5093741;28;20012;-74
2023/01/14 12:35:50;;;;;;;2.22;0.47;;;9.80;98.50;;;;;;5076978;28;20029;-75
2023/01/14 12:46:50;;;;;;;0.13;0.10;;;9.80;98.60;;;;;;5094533;28;20039;-74
2023/01/14 12:49:16;;;;;;;2.65;0.38;;;9.80;98.70;;;;;;5076672;28;20025;-74
2023/01/14 12:51:42;;;;;;;2.95;0.20;;;9.80;98.80;;;;;;5060043;28;20032;-74
2023/01/14 12:54:21;;;;;;;1.23;0.30;;;9.80;98.80;;;;;;5094271;28;20028;-75
2023/01/14 12:56:53;;;;;;;0.20;0.20;;;9.80;98.80;;;;;;5076636;28;20024;-75
2023/01/14 12:59:33;;;;;;;0.85;0.30;;;9.80;98.70;;;;;;5094335;28;20488;-74
2023/01/14 13:02:21;;;;;;;1.35;0.30;;;9.90;98.60;;;;;;5076550;28;20044;-74
2023/01/14 13:05:10;;;;;;;0.30;0.10;;;9.80;98.80;;;;;;5094125;28;20028;-74
2023/01/14 13:07:39;;;;;;;1.27;0.20;;;9.90;98.90;;;;;;5093891;28;20035;-75
2023/01/14 13:10:08;;;;;;;0.17;0.15;;;9.90;99.00;;;;;;5076317;28;20084;-75
2023/01/14 13:12:47;;;;;;;0.73;0.50;;;9.90;98.80;;;;;;5093941;28;20421;-75
2023/01/14 13:15:19;;;;;;;0.30;0.20;;;9.90;98.80;;;;;;5093935;28;20051;-74
2023/01/14 13:17:52;;;;;;;0.20;0.20;;;10.00;98.70;;;;;;5093868;28;20029;-74
2023/01/14 13:20:32;;;;;;;0.65;0.30;;;10.00;98.70;;;;;;5093622;28;20060;-74
2023/01/14 13:23:02;;;;;;;0.63;0.22;;;10.00;98.70;;;;;;5093801;28;20020;-74
2023/01/14 13:25:41;;;;;;;0.63;0.30;;;10.10;98.80;;;;;;5093915;28;20028;-74
2023/01/14 13:28:13;;;;;;;0.38;0.20;;;10.10;98.80;;;;;;5075932;28;20043;-74
2023/01/14 13:30:45;;;;;;;1.15;0.32;;;10.10;98.90;;;;;;5093672;28;20024;-74
2023/01/14 13:33:16;;;;;;;0.35;0.22;;;10.10;99.20;;;;;;5093819;28;20036;-74
2023/01/14 13:36:02;;;;;;;0.95;0.50;;;10.10;99.30;;;;;;5093667;28;20074;-74
2023/01/14 13:38:31;;;;;;;1.08;0.28;;;10.10;99.30;;;;;;5093554;28;20031;-75
2023/01/14 13:41:06;;;;;;;0.45;0.20;;;10.10;99.40;;;;;;5075808;28;20047;-74
2023/01/14 13:43:36;;;;;;;0.25;0.20;;;10.10;99.40;;;;;;5077290;28;20033;-74
2023/01/14 13:46:05;;;;;;;0.95;0.35;;;10.10;99.50;;;;;;5075897;28;20023;-74
2023/01/14 13:48:40;;;;;;;0.38;0.30;;;10.10;99.50;;;;;;5093413;28;20051;-74
2023/01/14 13:51:38;;;;;;;0.60;0.30;;;10.20;99.60;;;;;;5075656;28;20028;-74
2023/01/14 13:54:24;;;;;;;0.63;0.30;;;10.20;99.60;;;;;;5093414;28;20017;-74
2023/01/14 13:57:06;;;;;;;0.82;0.50;;;10.20;99.70;;;;;;5093381;28;20020;-74
2023/01/14 13:59:35;;;;;;;1.33;0.30;;;10.20;99.40;;;;;;5075622;28;20021;-74
2023/01/14 14:02:00;;;;;;;1.02;0.43;;;10.20;99.60;;;;;;5075539;28;20020;-74
2023/01/14 14:04:54;;;;;;;0.35;0.35;;;10.20;99.70;;;;;;5075712;28;20055;-75
2023/01/14 14:07:44;;;;;;;0.20;0.20;;;10.20;99.70;;;;;;5093246;28;20033;-74